sensor_id;sensor_type;location;lat;lon;timestamp;pressure;altitude;pressure_sealevel;temperature;humidity
54144;BME280;40050;47.324;18.792;2023-06-22T00:01:26;1006.28;;;25.83;67.76
54144;BME280;40050;47.324;18.792;2023-06-22T00:03:27;1006.37;;;25.84;67.79
54144;BME280;40050;47.324;18.792;2023-06-22T00:05:28;1006.41;;;25.84;68.15
54144;BME280;40050;47.324;18.792;2023-06-22T00:07:29;1006.32;;;25.82;68.09
54144;BME280;40050;47.324;18.792;2023-06-22T00:09:30;1006.21;;;25.72;68.25
54144;BME280;40050;47.324;18.792;2023-06-22T00:11:31;1006.23;;;25.70;68.06
54144;BME280;40050;47.324;18.792;2023-06-22T00:13:32;1006.22;;;25.65;68.06
54144;BME280;40050;47.324;18.792;2023-06-22T00:15:33;1006.27;;;25.66;68.21
54144;BME280;40050;47.324;18.792;2023-06-22T00:17:34;1006.12;;;25.58;68.33
54144;BME280;40050;47.324;18.792;2023-06-22T00:19:35;1006.12;;;25.55;68.47
54144;BME280;40050;47.324;18.792;2023-06-22T00:21:36;1006.05;;;25.52;68.57
54144;BME280;40050;47.324;18.792;2023-06-22T00:23:37;1005.98;;;25.50;68.70
54144;BME280;40050;47.324;18.792;2023-06-22T00:25:38;1006.02;;;25.53;68.71
54144;BME280;40050;47.324;18.792;2023-06-22T00:27:39;1006.07;;;25.53;68.55
54144;BME280;40050;47.324;18.792;2023-06-22T00:32:06;1006.02;;;25.52;69.28
54144;BME280;40050;47.324;18.792;2023-06-22T00:34:08;1005.96;;;25.49;69.33
54144;BME280;40050;47.324;18.792;2023-06-22T00:36:09;1005.96;;;25.48;69.15
54144;BME280;40050;47.324;18.792;2023-06-22T00:38:10;1005.97;;;25.42;69.14
54144;BME280;40050;47.324;18.792;2023-06-22T00:40:11;1006.05;;;25.43;69.68
54144;BME280;40050;47.324;18.792;2023-06-22T00:42:12;1005.99;;;25.32;69.39
54144;BME280;40050;47.324;18.792;2023-06-22T00:44:13;1006.16;;;25.38;69.18
54144;BME280;40050;47.324;18.792;2023-06-22T00:46:14;1006.10;;;25.31;69.20
54144;BME280;40050;47.324;18.792;2023-06-22T00:48:15;1006.13;;;25.35;69.13
54144;BME280;40050;47.324;18.792;2023-06-22T00:50:17;1006.16;;;25.35;69.04
54144;BME280;40050;47.324;18.792;2023-06-22T00:52:19;1005.95;;;25.21;69.03
54144;BME280;40050;47.324;18.792;2023-06-22T00:54:22;1006.12;;;25.34;68.86
54144;BME280;40050;47.324;18.792;2023-06-22T00:56:23;1006.08;;;25.28;69.33
54144;BME280;40050;47.324;18.792;2023-06-22T00:58:24;1006.10;;;25.25;69.67
54144;BME280;40050;47.324;18.792;2023-06-22T01:00:25;1006.01;;;25.23;69.71
54144;BME280;40050;47.324;18.792;2023-06-22T01:02:26;1005.95;;;25.21;69.31
54144;BME280;40050;47.324;18.792;2023-06-22T01:04:33;1005.95;;;25.18;69.06
54144;BME280;40050;47.324;18.792;2023-06-22T01:06:35;1005.97;;;25.14;68.72
54144;BME280;40050;47.324;18.792;2023-06-22T01:08:51;1005.94;;;25.09;68.71
54144;BME280;40050;47.324;18.792;2023-06-22T01:11:07;1005.96;;;25.07;68.82
54144;BME280;40050;47.324;18.792;2023-06-22T01:15:28;1005.91;;;24.97;69.24
54144;BME280;40050;47.324;18.792;2023-06-22T01:17:31;1005.93;;;24.93;69.27
54144;BME280;40050;47.324;18.792;2023-06-22T01:19:38;1005.89;;;24.91;69.46
54144;BME280;40050;47.324;18.792;2023-06-22T01:21:39;1005.87;;;24.89;69.49
54144;BME280;40050;47.324;18.792;2023-06-22T01:23:53;1005.85;;;24.88;69.51
54144;BME280;40050;47.324;18.792;2023-06-22T01:30:30;1005.78;;;24.77;69.96
54144;BME280;40050;47.324;18.792;2023-06-22T01:32:33;1005.69;;;24.76;70.06
54144;BME280;40050;47.324;18.792;2023-06-22T01:34:35;1005.71;;;24.77;70.05
54144;BME280;40050;47.324;18.792;2023-06-22T01:36:37;1005.43;;;24.63;69.88
54144;BME280;40050;47.324;18.792;2023-06-22T01:38:38;1005.71;;;24.79;69.92
54144;BME280;40050;47.324;18.792;2023-06-22T01:40:42;1005.73;;;24.80;69.83
54144;BME280;40050;47.324;18.792;2023-06-22T01:42:44;1005.74;;;24.82;69.74
54144;BME280;40050;47.324;18.792;2023-06-22T01:44:45;1005.69;;;24.85;69.70
54144;BME280;40050;47.324;18.792;2023-06-22T01:46:46;1005.73;;;24.87;69.62
54144;BME280;40050;47.324;18.792;2023-06-22T01:48:49;1005.76;;;24.90;69.59
54144;BME280;40050;47.324;18.792;2023-06-22T01:50:51;1005.75;;;24.90;69.77
54144;BME280;40050;47.324;18.792;2023-06-22T01:52:52;1005.79;;;24.90;69.81
54144;BME280;40050;47.324;18.792;2023-06-22T01:54:53;1005.77;;;24.89;69.85
54144;BME280;40050;47.324;18.792;2023-06-22T01:56:54;1005.80;;;24.89;69.72
54144;BME280;40050;47.324;18.792;2023-06-22T01:59:08;1005.75;;;24.81;69.49
54144;BME280;40050;47.324;18.792;2023-06-22T02:01:11;1005.83;;;24.78;68.92
54144;BME280;40050;47.324;18.792;2023-06-22T02:03:14;1005.94;;;24.76;68.90
54144;BME280;40050;47.324;18.792;2023-06-22T02:05:19;1005.96;;;24.74;69.31
54144;BME280;40050;47.324;18.792;2023-06-22T02:07:23;1005.58;;;24.45;69.33
54144;BME280;40050;47.324;18.792;2023-06-22T02:09:24;1005.86;;;24.65;69.21
54144;BME280;40050;47.324;18.792;2023-06-22T02:11:26;1005.89;;;24.65;69.35
54144;BME280;40050;47.324;18.792;2023-06-22T02:13:29;1005.90;;;24.62;69.45
54144;BME280;40050;47.324;18.792;2023-06-22T02:15:31;1005.87;;;24.61;69.73
54144;BME280;40050;47.324;18.792;2023-06-22T02:17:32;1005.84;;;24.60;69.74
54144;BME280;40050;47.324;18.792;2023-06-22T02:19:36;1005.81;;;24.56;69.94
54144;BME280;40050;47.324;18.792;2023-06-22T02:21:37;1005.86;;;24.53;70.03
54144;BME280;40050;47.324;18.792;2023-06-22T02:23:38;1005.88;;;24.50;70.16
54144;BME280;40050;47.324;18.792;2023-06-22T02:25:39;1005.94;;;24.52;70.32
54144;BME280;40050;47.324;18.792;2023-06-22T02:27:40;1005.95;;;24.52;70.40
54144;BME280;40050;47.324;18.792;2023-06-22T02:29:41;1005.97;;;24.50;70.50
54144;BME280;40050;47.324;18.792;2023-06-22T02:31:42;1005.95;;;24.43;70.61
54144;BME280;40050;47.324;18.792;2023-06-22T02:33:43;1006.03;;;24.41;70.70
54144;BME280;40050;47.324;18.792;2023-06-22T02:35:44;1006.06;;;24.39;71.08
54144;BME280;40050;47.324;18.792;2023-06-22T02:37:45;1006.06;;;24.38;70.96
54144;BME280;40050;47.324;18.792;2023-06-22T02:39:46;1005.86;;;24.21;71.20
54144;BME280;40050;47.324;18.792;2023-06-22T02:41:50;1005.89;;;24.23;71.30
54144;BME280;40050;47.324;18.792;2023-06-22T02:43:52;1006.16;;;24.39;71.03
54144;BME280;40050;47.324;18.792;2023-06-22T02:45:53;1006.20;;;24.35;70.65
54144;BME280;40050;47.324;18.792;2023-06-22T02:47:54;1006.26;;;24.35;70.51
54144;BME280;40050;47.324;18.792;2023-06-22T02:49:55;1006.26;;;24.35;70.49
54144;BME280;40050;47.324;18.792;2023-06-22T02:51:56;1006.27;;;24.33;70.56
54144;BME280;40050;47.324;18.792;2023-06-22T02:53:57;1006.28;;;24.30;70.47
54144;BME280;40050;47.324;18.792;2023-06-22T02:55:59;1006.12;;;24.19;70.56
54144;BME280;40050;47.324;18.792;2023-06-22T02:58:00;1006.33;;;24.30;70.59
54144;BME280;40050;47.324;18.792;2023-06-22T03:00:02;1006.33;;;24.29;70.75
54144;BME280;40050;47.324;18.792;2023-06-22T03:02:04;1006.27;;;24.26;70.90
54144;BME280;40050;47.324;18.792;2023-06-22T03:04:11;1006.28;;;24.25;70.84
54144;BME280;40050;47.324;18.792;2023-06-22T03:06:12;1006.26;;;24.25;70.81
54144;BME280;40050;47.324;18.792;2023-06-22T03:08:13;1006.14;;;24.23;70.80
54144;BME280;40050;47.324;18.792;2023-06-22T03:10:14;1006.10;;;24.23;70.90
54144;BME280;40050;47.324;18.792;2023-06-22T03:12:15;1006.17;;;24.25;70.95
54144;BME280;40050;47.324;18.792;2023-06-22T03:14:16;1006.18;;;24.24;70.94
54144;BME280;40050;47.324;18.792;2023-06-22T03:16:17;1005.99;;;24.10;70.96
54144;BME280;40050;47.324;18.792;2023-06-22T03:18:18;1006.19;;;24.24;71.08
54144;BME280;40050;47.324;18.792;2023-06-22T03:20:19;1006.17;;;24.25;70.99
54144;BME280;40050;47.324;18.792;2023-06-22T03:22:20;1006.07;;;24.25;70.86
54144;BME280;40050;47.324;18.792;2023-06-22T03:24:21;1006.10;;;24.27;70.78
54144;BME280;40050;47.324;18.792;2023-06-22T03:26:21;1006.12;;;24.30;70.87
54144;BME280;40050;47.324;18.792;2023-06-22T03:28:22;1006.07;;;24.30;70.80
54144;BME280;40050;47.324;18.792;2023-06-22T03:30:23;1006.08;;;24.30;70.65
54144;BME280;40050;47.324;18.792;2023-06-22T03:32:24;1006.05;;;24.26;70.64
54144;BME280;40050;47.324;18.792;2023-06-22T03:34:26;1005.98;;;24.22;70.67
54144;BME280;40050;47.324;18.792;2023-06-22T03:36:27;1006.02;;;24.25;70.70
54144;BME280;40050;47.324;18.792;2023-06-22T03:38:28;1005.99;;;24.25;70.72
54144;BME280;40050;47.324;18.792;2023-06-22T03:40:29;1006.01;;;24.26;70.67
54144;BME280;40050;47.324;18.792;2023-06-22T03:42:30;1005.95;;;24.23;70.74
54144;BME280;40050;47.324;18.792;2023-06-22T03:44:31;1005.97;;;24.22;70.71
54144;BME280;40050;47.324;18.792;2023-06-22T03:46:34;1006.04;;;24.25;70.72
54144;BME280;40050;47.324;18.792;2023-06-22T03:48:44;1006.11;;;24.23;70.73
54144;BME280;40050;47.324;18.792;2023-06-22T03:50:45;1006.22;;;24.24;70.86
54144;BME280;40050;47.324;18.792;2023-06-22T03:52:46;1006.24;;;24.24;70.85
54144;BME280;40050;47.324;18.792;2023-06-22T03:54:47;1006.22;;;24.25;70.97
54144;BME280;40050;47.324;18.792;2023-06-22T03:56:48;1006.24;;;24.27;71.21
54144;BME280;40050;47.324;18.792;2023-06-22T03:58:49;1006.22;;;24.30;71.27
54144;BME280;40050;47.324;18.792;2023-06-22T04:00:51;1006.20;;;24.32;71.34
54144;BME280;40050;47.324;18.792;2023-06-22T04:02:52;1006.16;;;24.34;71.24
54144;BME280;40050;47.324;18.792;2023-06-22T04:04:53;1006.17;;;24.36;71.21
54144;BME280;40050;47.324;18.792;2023-06-22T04:06:54;1006.21;;;24.37;71.14
54144;BME280;40050;47.324;18.792;2023-06-22T04:08:54;1006.27;;;24.41;71.00
54144;BME280;40050;47.324;18.792;2023-06-22T04:10:55;1006.26;;;24.43;71.00
54144;BME280;40050;47.324;18.792;2023-06-22T04:12:56;1006.25;;;24.47;71.01
54144;BME280;40050;47.324;18.792;2023-06-22T04:14:57;1006.20;;;24.50;70.91
54144;BME280;40050;47.324;18.792;2023-06-22T04:16:58;1006.23;;;24.52;70.50
54144;BME280;40050;47.324;18.792;2023-06-22T04:18:59;1006.13;;;24.52;70.14
54144;BME280;40050;47.324;18.792;2023-06-22T04:21:01;1006.11;;;24.53;70.29
54144;BME280;40050;47.324;18.792;2023-06-22T04:23:02;1006.15;;;24.57;70.50
54144;BME280;40050;47.324;18.792;2023-06-22T04:25:03;1006.21;;;24.59;70.65
54144;BME280;40050;47.324;18.792;2023-06-22T04:27:04;1006.19;;;24.61;70.64
54144;BME280;40050;47.324;18.792;2023-06-22T04:29:05;1006.16;;;24.60;70.64
54144;BME280;40050;47.324;18.792;2023-06-22T04:31:06;1006.15;;;24.60;70.55
54144;BME280;40050;47.324;18.792;2023-06-22T04:33:07;1006.17;;;24.62;70.59
54144;BME280;40050;47.324;18.792;2023-06-22T04:35:08;1006.25;;;24.65;70.67
54144;BME280;40050;47.324;18.792;2023-06-22T04:37:09;1006.28;;;24.68;70.45
54144;BME280;40050;47.324;18.792;2023-06-22T04:39:10;1006.27;;;24.70;70.35
54144;BME280;40050;47.324;18.792;2023-06-22T04:41:11;1006.25;;;24.74;70.18
54144;BME280;40050;47.324;18.792;2023-06-22T04:43:12;1006.31;;;24.79;70.35
54144;BME280;40050;47.324;18.792;2023-06-22T04:45:13;1006.33;;;24.83;70.56
54144;BME280;40050;47.324;18.792;2023-06-22T04:47:15;1006.28;;;24.83;70.87
54144;BME280;40050;47.324;18.792;2023-06-22T04:49:16;1006.28;;;24.90;70.95
54144;BME280;40050;47.324;18.792;2023-06-22T04:51:17;1006.27;;;24.93;70.81
54144;BME280;40050;47.324;18.792;2023-06-22T04:55:29;1006.41;;;24.98;70.70
54144;BME280;40050;47.324;18.792;2023-06-22T04:57:30;1006.38;;;25.01;70.50
54144;BME280;40050;47.324;18.792;2023-06-22T04:59:31;1006.43;;;25.08;70.07
54144;BME280;40050;47.324;18.792;2023-06-22T05:01:32;1006.35;;;25.12;69.18
54144;BME280;40050;47.324;18.792;2023-06-22T05:03:33;1006.32;;;25.14;69.28
54144;BME280;40050;47.324;18.792;2023-06-22T05:05:34;1006.42;;;25.19;69.26
54144;BME280;40050;47.324;18.792;2023-06-22T05:07:35;1006.33;;;25.20;69.66
54144;BME280;40050;47.324;18.792;2023-06-22T05:09:36;1006.50;;;25.33;69.79
54144;BME280;40050;47.324;18.792;2023-06-22T05:11:37;1006.48;;;25.40;69.89
54144;BME280;40050;47.324;18.792;2023-06-22T05:13:38;1006.51;;;25.51;70.16
54144;BME280;40050;47.324;18.792;2023-06-22T05:15:39;1006.54;;;25.62;69.54
54144;BME280;40050;47.324;18.792;2023-06-22T05:17:40;1006.58;;;25.72;68.56
54144;BME280;40050;47.324;18.792;2023-06-22T05:19:41;1006.69;;;25.77;68.55
54144;BME280;40050;47.324;18.792;2023-06-22T05:21:43;1006.66;;;25.79;67.91
54144;BME280;40050;47.324;18.792;2023-06-22T05:23:44;1006.73;;;25.86;68.34
54144;BME280;40050;47.324;18.792;2023-06-22T05:25:45;1006.73;;;25.98;68.41
54144;BME280;40050;47.324;18.792;2023-06-22T05:27:46;1006.69;;;26.03;68.14
54144;BME280;40050;47.324;18.792;2023-06-22T05:29:50;1006.78;;;26.10;68.04
54144;BME280;40050;47.324;18.792;2023-06-22T05:31:53;1006.75;;;26.12;68.33
54144;BME280;40050;47.324;18.792;2023-06-22T05:33:54;1006.84;;;26.28;68.11
54144;BME280;40050;47.324;18.792;2023-06-22T05:36:01;1006.79;;;26.29;68.03
54144;BME280;40050;47.324;18.792;2023-06-22T05:38:02;1006.70;;;26.33;68.00
54144;BME280;40050;47.324;18.792;2023-06-22T05:40:04;1006.82;;;26.55;67.83
54144;BME280;40050;47.324;18.792;2023-06-22T05:42:07;1006.85;;;26.70;67.94
54144;BME280;40050;47.324;18.792;2023-06-22T05:44:08;1006.87;;;26.88;67.54
54144;BME280;40050;47.324;18.792;2023-06-22T05:46:09;1006.86;;;26.98;66.79
54144;BME280;40050;47.324;18.792;2023-06-22T05:48:10;1006.95;;;27.07;66.66
54144;BME280;40050;47.324;18.792;2023-06-22T05:50:11;1006.92;;;27.15;66.48
54144;BME280;40050;47.324;18.792;2023-06-22T05:52:12;1006.92;;;27.26;66.03
54144;BME280;40050;47.324;18.792;2023-06-22T05:54:13;1006.88;;;27.35;64.85
54144;BME280;40050;47.324;18.792;2023-06-22T05:56:17;1006.87;;;27.48;64.08
54144;BME280;40050;47.324;18.792;2023-06-22T05:58:18;1006.85;;;27.63;63.65
54144;BME280;40050;47.324;18.792;2023-06-22T06:00:20;1006.78;;;27.65;63.21
54144;BME280;40050;47.324;18.792;2023-06-22T06:02:21;1006.87;;;27.79;63.45
54144;BME280;40050;47.324;18.792;2023-06-22T06:04:22;1006.82;;;27.89;63.02
54144;BME280;40050;47.324;18.792;2023-06-22T06:06:23;1006.76;;;27.92;61.93
54144;BME280;40050;47.324;18.792;2023-06-22T06:08:25;1006.79;;;28.03;61.86
54144;BME280;40050;47.324;18.792;2023-06-22T06:16:49;1006.74;;;28.26;59.45
54144;BME280;40050;47.324;18.792;2023-06-22T06:23:02;1006.83;;;28.56;58.92
54144;BME280;40050;47.324;18.792;2023-06-22T06:25:03;1006.77;;;28.72;59.00
54144;BME280;40050;47.324;18.792;2023-06-22T06:27:04;1006.78;;;28.89;57.51
54144;BME280;40050;47.324;18.792;2023-06-22T06:29:05;1006.76;;;29.05;56.85
54144;BME280;40050;47.324;18.792;2023-06-22T06:31:06;1006.78;;;29.24;56.32
54144;BME280;40050;47.324;18.792;2023-06-22T06:33:07;1006.79;;;29.38;55.04
54144;BME280;40050;47.324;18.792;2023-06-22T06:35:10;1006.77;;;29.46;55.25
54144;BME280;40050;47.324;18.792;2023-06-22T06:37:11;1006.73;;;29.73;52.98
54144;BME280;40050;47.324;18.792;2023-06-22T06:39:12;1006.66;;;29.73;52.51
54144;BME280;40050;47.324;18.792;2023-06-22T06:41:13;1006.67;;;29.86;53.19
54144;BME280;40050;47.324;18.792;2023-06-22T06:43:14;1006.65;;;29.97;53.17
54144;BME280;40050;47.324;18.792;2023-06-22T06:45:19;1006.66;;;30.05;52.63
54144;BME280;40050;47.324;18.792;2023-06-22T06:47:20;1006.72;;;30.11;51.27
54144;BME280;40050;47.324;18.792;2023-06-22T06:49:21;1006.65;;;30.16;51.64
54144;BME280;40050;47.324;18.792;2023-06-22T06:51:22;1006.66;;;30.27;51.53
54144;BME280;40050;47.324;18.792;2023-06-22T06:53:25;1006.62;;;30.39;51.04
54144;BME280;40050;47.324;18.792;2023-06-22T06:55:26;1006.64;;;30.55;50.80
54144;BME280;40050;47.324;18.792;2023-06-22T06:57:27;1006.64;;;30.67;50.36
54144;BME280;40050;47.324;18.792;2023-06-22T06:59:28;1006.63;;;30.70;49.00
54144;BME280;40050;47.324;18.792;2023-06-22T07:03:35;1006.57;;;30.77;48.93
54144;BME280;40050;47.324;18.792;2023-06-22T07:05:36;1006.53;;;30.77;49.13
54144;BME280;40050;47.324;18.792;2023-06-22T07:07:36;1006.55;;;30.89;49.41
54144;BME280;40050;47.324;18.792;2023-06-22T07:09:37;1006.63;;;31.07;49.15
54144;BME280;40050;47.324;18.792;2023-06-22T07:11:38;1006.56;;;31.18;49.01
54144;BME280;40050;47.324;18.792;2023-06-22T07:13:39;1006.53;;;31.24;48.42
54144;BME280;40050;47.324;18.792;2023-06-22T07:15:40;1006.55;;;31.20;47.33
54144;BME280;40050;47.324;18.792;2023-06-22T07:17:44;1006.38;;;31.16;47.98
54144;BME280;40050;47.324;18.792;2023-06-22T07:19:45;1006.45;;;31.24;48.31
54144;BME280;40050;47.324;18.792;2023-06-22T07:21:46;1006.52;;;31.36;48.49
54144;BME280;40050;47.324;18.792;2023-06-22T07:23:47;1006.50;;;31.47;47.54
54144;BME280;40050;47.324;18.792;2023-06-22T07:25:48;1006.53;;;31.56;47.34
54144;BME280;40050;47.324;18.792;2023-06-22T07:28:02;1006.51;;;31.70;47.17
54144;BME280;40050;47.324;18.792;2023-06-22T07:30:04;1006.31;;;31.75;46.63
54144;BME280;40050;47.324;18.792;2023-06-22T07:32:05;1006.53;;;32.04;44.90
54144;BME280;40050;47.324;18.792;2023-06-22T07:34:06;1006.52;;;32.06;45.46
54144;BME280;40050;47.324;18.792;2023-06-22T07:36:07;1006.58;;;32.14;45.90
54144;BME280;40050;47.324;18.792;2023-06-22T07:38:08;1006.58;;;32.29;45.48
54144;BME280;40050;47.324;18.792;2023-06-22T07:40:09;1006.59;;;32.39;45.40
54144;BME280;40050;47.324;18.792;2023-06-22T07:42:10;1006.41;;;32.32;44.93
54144;BME280;40050;47.324;18.792;2023-06-22T07:44:11;1006.59;;;32.37;44.34
54144;BME280;40050;47.324;18.792;2023-06-22T07:46:12;1006.52;;;32.41;44.48
54144;BME280;40050;47.324;18.792;2023-06-22T07:48:13;1006.42;;;32.37;44.63
54144;BME280;40050;47.324;18.792;2023-06-22T07:50:14;1006.53;;;32.51;44.62
54144;BME280;40050;47.324;18.792;2023-06-22T07:52:15;1006.54;;;32.49;44.37
54144;BME280;40050;47.324;18.792;2023-06-22T07:54:16;1006.51;;;32.56;44.81
54144;BME280;40050;47.324;18.792;2023-06-22T07:56:17;1006.52;;;32.68;44.87
54144;BME280;40050;47.324;18.792;2023-06-22T07:58:18;1006.50;;;32.76;45.42
54144;BME280;40050;47.324;18.792;2023-06-22T08:00:19;1006.46;;;32.87;44.84
54144;BME280;40050;47.324;18.792;2023-06-22T08:02:20;1006.41;;;32.94;44.10
54144;BME280;40050;47.324;18.792;2023-06-22T08:04:21;1006.41;;;33.06;43.78
54144;BME280;40050;47.324;18.792;2023-06-22T08:06:22;1006.47;;;33.18;43.99
54144;BME280;40050;47.324;18.792;2023-06-22T08:08:23;1006.44;;;33.29;43.99
54144;BME280;40050;47.324;18.792;2023-06-22T08:10:24;1006.42;;;33.36;43.58
54144;BME280;40050;47.324;18.792;2023-06-22T08:12:25;1006.47;;;33.31;43.51
54144;BME280;40050;47.324;18.792;2023-06-22T08:14:26;1006.44;;;33.32;43.24
54144;BME280;40050;47.324;18.792;2023-06-22T08:16:27;1006.42;;;33.38;44.04
54144;BME280;40050;47.324;18.792;2023-06-22T08:18:31;1006.41;;;33.47;43.46
54144;BME280;40050;47.324;18.792;2023-06-22T08:20:32;1006.39;;;33.52;43.68
54144;BME280;40050;47.324;18.792;2023-06-22T08:22:33;1006.41;;;33.72;43.85
54144;BME280;40050;47.324;18.792;2023-06-22T08:24:34;1006.36;;;33.92;44.50
54144;BME280;40050;47.324;18.792;2023-06-22T08:26:35;1006.30;;;34.15;44.06
54144;BME280;40050;47.324;18.792;2023-06-22T08:28:36;1006.32;;;34.30;42.67
54144;BME280;40050;47.324;18.792;2023-06-22T08:30:37;1006.33;;;34.45;43.39
54144;BME280;40050;47.324;18.792;2023-06-22T08:32:38;1006.30;;;34.63;42.20
54144;BME280;40050;47.324;18.792;2023-06-22T08:34:39;1006.34;;;34.82;43.02
54144;BME280;40050;47.324;18.792;2023-06-22T08:36:40;1006.35;;;35.02;41.57
54144;BME280;40050;47.324;18.792;2023-06-22T08:38:41;1006.31;;;35.07;40.69
54144;BME280;40050;47.324;18.792;2023-06-22T08:40:42;1006.28;;;34.94;40.41
54144;BME280;40050;47.324;18.792;2023-06-22T08:42:42;1006.28;;;34.99;39.69
54144;BME280;40050;47.324;18.792;2023-06-22T08:44:44;1006.30;;;34.96;39.60
54144;BME280;40050;47.324;18.792;2023-06-22T08:46:45;1006.25;;;34.88;40.03
54144;BME280;40050;47.324;18.792;2023-06-22T08:48:46;1006.21;;;34.97;40.53
54144;BME280;40050;47.324;18.792;2023-06-22T08:50:50;1006.18;;;35.10;40.78
54144;BME280;40050;47.324;18.792;2023-06-22T08:52:51;1006.18;;;35.17;39.54
54144;BME280;40050;47.324;18.792;2023-06-22T08:54:52;1006.15;;;35.13;38.99
54144;BME280;40050;47.324;18.792;2023-06-22T08:56:52;1006.14;;;35.08;39.04
54144;BME280;40050;47.324;18.792;2023-06-22T08:58:54;1006.15;;;35.07;39.36
54144;BME280;40050;47.324;18.792;2023-06-22T09:00:55;1006.10;;;35.13;39.56
54144;BME280;40050;47.324;18.792;2023-06-22T09:02:56;1006.11;;;35.17;39.77
54144;BME280;40050;47.324;18.792;2023-06-22T09:04:58;1006.10;;;35.18;38.95
54144;BME280;40050;47.324;18.792;2023-06-22T09:07:03;1006.05;;;35.10;38.56
54144;BME280;40050;47.324;18.792;2023-06-22T09:09:04;1006.02;;;34.98;38.98
54144;BME280;40050;47.324;18.792;2023-06-22T09:11:05;1005.99;;;34.96;39.50
54144;BME280;40050;47.324;18.792;2023-06-22T09:13:08;1006.03;;;35.04;38.97
54144;BME280;40050;47.324;18.792;2023-06-22T09:15:12;1005.97;;;35.17;38.57
54144;BME280;40050;47.324;18.792;2023-06-22T09:17:13;1005.85;;;35.29;39.11
54144;BME280;40050;47.324;18.792;2023-06-22T09:19:14;1005.90;;;35.38;38.94
54144;BME280;40050;47.324;18.792;2023-06-22T09:21:15;1005.91;;;35.42;38.20
54144;BME280;40050;47.324;18.792;2023-06-22T09:23:17;1005.90;;;35.54;38.72
54144;BME280;40050;47.324;18.792;2023-06-22T09:25:19;1005.95;;;35.63;38.15
54144;BME280;40050;47.324;18.792;2023-06-22T09:27:20;1005.94;;;35.66;38.05
54144;BME280;40050;47.324;18.792;2023-06-22T09:29:21;1005.87;;;35.75;37.91
54144;BME280;40050;47.324;18.792;2023-06-22T09:31:22;1005.66;;;35.59;38.42
54144;BME280;40050;47.324;18.792;2023-06-22T09:33:22;1005.85;;;35.72;38.43
54144;BME280;40050;47.324;18.792;2023-06-22T09:35:23;1005.84;;;35.85;37.32
54144;BME280;40050;47.324;18.792;2023-06-22T09:37:24;1005.83;;;35.86;37.71
54144;BME280;40050;47.324;18.792;2023-06-22T09:39:26;1005.83;;;35.85;37.66
54144;BME280;40050;47.324;18.792;2023-06-22T09:41:27;1005.75;;;35.85;37.62
54144;BME280;40050;47.324;18.792;2023-06-22T09:43:28;1005.73;;;35.93;38.63
54144;BME280;40050;47.324;18.792;2023-06-22T09:45:29;1005.77;;;35.85;37.14
54144;BME280;40050;47.324;18.792;2023-06-22T09:47:30;1005.68;;;35.83;37.40
54144;BME280;40050;47.324;18.792;2023-06-22T09:49:31;1005.67;;;35.89;37.81
54144;BME280;40050;47.324;18.792;2023-06-22T09:51:32;1005.75;;;36.04;37.33
54144;BME280;40050;47.324;18.792;2023-06-22T09:53:33;1005.78;;;36.10;37.28
54144;BME280;40050;47.324;18.792;2023-06-22T09:55:34;1005.78;;;36.06;37.88
54144;BME280;40050;47.324;18.792;2023-06-22T09:57:35;1005.81;;;36.06;38.24
54144;BME280;40050;47.324;18.792;2023-06-22T09:59:36;1005.75;;;36.05;37.33
54144;BME280;40050;47.324;18.792;2023-06-22T10:01:37;1005.72;;;36.05;37.24
54144;BME280;40050;47.324;18.792;2023-06-22T10:03:38;1005.69;;;36.09;36.72
54144;BME280;40050;47.324;18.792;2023-06-22T10:05:39;1005.70;;;36.00;37.83
54144;BME280;40050;47.324;18.792;2023-06-22T10:07:40;1005.68;;;35.89;37.42
54144;BME280;40050;47.324;18.792;2023-06-22T10:09:41;1005.69;;;35.92;37.67
54144;BME280;40050;47.324;18.792;2023-06-22T10:11:42;1005.70;;;35.89;38.57
54144;BME280;40050;47.324;18.792;2023-06-22T10:13:43;1005.63;;;35.91;38.30
54144;BME280;40050;47.324;18.792;2023-06-22T10:15:44;1005.65;;;35.85;38.21
54144;BME280;40050;47.324;18.792;2023-06-22T10:17:45;1005.51;;;35.68;38.08
54144;BME280;40050;47.324;18.792;2023-06-22T10:19:46;1005.66;;;35.74;38.44
54144;BME280;40050;47.324;18.792;2023-06-22T10:21:46;1005.68;;;35.67;37.78
54144;BME280;40050;47.324;18.792;2023-06-22T10:23:47;1005.71;;;35.61;37.89
54144;BME280;40050;47.324;18.792;2023-06-22T10:25:48;1005.68;;;35.62;38.05
54144;BME280;40050;47.324;18.792;2023-06-22T10:27:50;1005.67;;;35.67;37.85
54144;BME280;40050;47.324;18.792;2023-06-22T10:29:51;1005.59;;;35.59;37.71
54144;BME280;40050;47.324;18.792;2023-06-22T10:31:52;1005.63;;;35.49;37.55
54144;BME280;40050;47.324;18.792;2023-06-22T10:33:53;1005.57;;;35.40;37.46
54144;BME280;40050;47.324;18.792;2023-06-22T10:35:55;1005.60;;;35.40;37.51
54144;BME280;40050;47.324;18.792;2023-06-22T10:37:56;1005.38;;;35.27;37.85
54144;BME280;40050;47.324;18.792;2023-06-22T10:39:56;1005.54;;;35.43;38.82
54144;BME280;40050;47.324;18.792;2023-06-22T10:41:57;1005.49;;;35.40;38.84
54144;BME280;40050;47.324;18.792;2023-06-22T10:43:58;1005.53;;;35.43;37.92
54144;BME280;40050;47.324;18.792;2023-06-22T10:45:59;1005.45;;;35.41;37.90
54144;BME280;40050;47.324;18.792;2023-06-22T10:48:00;1005.52;;;35.42;38.06
54144;BME280;40050;47.324;18.792;2023-06-22T10:50:01;1005.50;;;35.48;37.59
54144;BME280;40050;47.324;18.792;2023-06-22T10:52:02;1005.53;;;35.58;37.36
54144;BME280;40050;47.324;18.792;2023-06-22T10:54:03;1005.50;;;35.59;36.55
54144;BME280;40050;47.324;18.792;2023-06-22T10:56:04;1005.49;;;35.44;37.58
54144;BME280;40050;47.324;18.792;2023-06-22T10:58:05;1005.52;;;35.42;38.52
54144;BME280;40050;47.324;18.792;2023-06-22T11:00:07;1005.58;;;35.47;37.74
54144;BME280;40050;47.324;18.792;2023-06-22T11:02:08;1005.55;;;35.46;38.38
54144;BME280;40050;47.324;18.792;2023-06-22T11:04:09;1005.53;;;35.55;39.15
54144;BME280;40050;47.324;18.792;2023-06-22T11:06:10;1005.53;;;35.67;39.35
54144;BME280;40050;47.324;18.792;2023-06-22T11:08:10;1005.50;;;35.70;38.45